Dearborn Heights, Michigan
Current Conditions -  °F | °C
As of 4:53 AM on Friday 21 Nov 2014 (Local Time) from KDTW Reporting Station
Scattered Clouds Scattered Clouds  
Wind Chill: -15°   Ceiling: Unl
Heat Index: -9°   Visibility: 10mi
Dew Point: -13°   Wind: 8mph
Humidity: 77%   Direction: 260°W
Pressure: 30.32"   Gusts: NA
Location:  42.33°N, 83.28°W
Report Text: KDTW 210953Z 26007KT 10SM SCT060 SCT095 M09/M13 A3032 RMK AO2 SLP280 T10941128 $
Loading
Personal Weather Stations






























Interactive Weather Map New forecast layout! Learn more

10-Day Weather Forecast

Advertisements
Track Severe Weather on mobile